sensor_id;sensor_type;location;lat;lon;timestamp;P1;durP1;ratioP1;P2;durP2;ratioP2
75823;SDS011;64457;51.976;9.834;2023-07-31T00:02:08;9.10;;;1.60;;
75823;SDS011;64457;51.976;9.834;2023-07-31T00:04:36;11.43;;;1.73;;
75823;SDS011;64457;51.976;9.834;2023-07-31T00:07:06;5.60;;;1.60;;
75823;SDS011;64457;51.976;9.834;2023-07-31T00:09:43;6.73;;;1.50;;
75823;SDS011;64457;51.976;9.834;2023-07-31T00:12:11;5.20;;;1.60;;
75823;SDS011;64457;51.976;9.834;2023-07-31T00:14:40;5.97;;;1.50;;
75823;SDS011;64457;51.976;9.834;2023-07-31T00:17:07;5.17;;;1.30;;
75823;SDS011;64457;51.976;9.834;2023-07-31T00:19:37;5.90;;;1.20;;
75823;SDS011;64457;51.976;9.834;2023-07-31T00:22:05;6.20;;;1.20;;
75823;SDS011;64457;51.976;9.834;2023-07-31T00:24:32;5.23;;;1.10;;
75823;SDS011;64457;51.976;9.834;2023-07-31T00:27:00;6.33;;;1.30;;
75823;SDS011;64457;51.976;9.834;2023-07-31T00:29:27;11.63;;;1.30;;
75823;SDS011;64457;51.976;9.834;2023-07-31T00:31:56;5.90;;;1.20;;
75823;SDS011;64457;51.976;9.834;2023-07-31T00:34:23;6.33;;;1.30;;
75823;SDS011;64457;51.976;9.834;2023-07-31T00:36:51;5.33;;;1.00;;
75823;SDS011;64457;51.976;9.834;2023-07-31T00:39:18;5.23;;;1.00;;
75823;SDS011;64457;51.976;9.834;2023-07-31T00:41:48;6.67;;;1.40;;
75823;SDS011;64457;51.976;9.834;2023-07-31T00:44:16;6.73;;;1.40;;
75823;SDS011;64457;51.976;9.834;2023-07-31T00:46:48;6.10;;;1.30;;
75823;SDS011;64457;51.976;9.834;2023-07-31T00:49:20;6.30;;;1.30;;
75823;SDS011;64457;51.976;9.834;2023-07-31T00:51:48;5.50;;;1.30;;
75823;SDS011;64457;51.976;9.834;2023-07-31T00:54:16;8.67;;;1.50;;
75823;SDS011;64457;51.976;9.834;2023-07-31T00:56:44;7.57;;;1.30;;
75823;SDS011;64457;51.976;9.834;2023-07-31T00:59:13;12.03;;;1.77;;
75823;SDS011;64457;51.976;9.834;2023-07-31T01:01:41;5.20;;;1.00;;
75823;SDS011;64457;51.976;9.834;2023-07-31T01:04:09;6.27;;;1.23;;
75823;SDS011;64457;51.976;9.834;2023-07-31T01:06:40;4.90;;;1.00;;
75823;SDS011;64457;51.976;9.834;2023-07-31T01:09:19;6.80;;;1.20;;
75823;SDS011;64457;51.976;9.834;2023-07-31T01:11:56;5.63;;;1.23;;
75823;SDS011;64457;51.976;9.834;2023-07-31T01:14:27;6.60;;;1.77;;
75823;SDS011;64457;51.976;9.834;2023-07-31T01:16:55;7.27;;;1.30;;
75823;SDS011;64457;51.976;9.834;2023-07-31T01:19:23;6.30;;;1.97;;
75823;SDS011;64457;51.976;9.834;2023-07-31T01:21:58;8.23;;;1.50;;
75823;SDS011;64457;51.976;9.834;2023-07-31T01:24:54;6.73;;;1.30;;
75823;SDS011;64457;51.976;9.834;2023-07-31T01:27:29;6.10;;;1.40;;
75823;SDS011;64457;51.976;9.834;2023-07-31T01:30:03;5.30;;;1.23;;
75823;SDS011;64457;51.976;9.834;2023-07-31T01:32:40;5.20;;;1.10;;
75823;SDS011;64457;51.976;9.834;2023-07-31T01:35:09;5.00;;;1.10;;
75823;SDS011;64457;51.976;9.834;2023-07-31T01:37:36;6.07;;;1.40;;
75823;SDS011;64457;51.976;9.834;2023-07-31T01:40:04;6.00;;;1.27;;
75823;SDS011;64457;51.976;9.834;2023-07-31T01:42:34;5.20;;;1.10;;
75823;SDS011;64457;51.976;9.834;2023-07-31T01:45:02;6.70;;;1.40;;
75823;SDS011;64457;51.976;9.834;2023-07-31T01:47:30;8.20;;;1.70;;
75823;SDS011;64457;51.976;9.834;2023-07-31T01:49:58;5.30;;;1.20;;
75823;SDS011;64457;51.976;9.834;2023-07-31T01:52:25;5.60;;;1.57;;
75823;SDS011;64457;51.976;9.834;2023-07-31T01:54:54;6.17;;;1.50;;
75823;SDS011;64457;51.976;9.834;2023-07-31T01:57:21;5.70;;;1.30;;
75823;SDS011;64457;51.976;9.834;2023-07-31T01:59:50;5.83;;;1.40;;
75823;SDS011;64457;51.976;9.834;2023-07-31T02:02:20;6.73;;;1.33;;
75823;SDS011;64457;51.976;9.834;2023-07-31T02:04:51;5.60;;;1.40;;
75823;SDS011;64457;51.976;9.834;2023-07-31T02:07:18;6.13;;;1.30;;
75823;SDS011;64457;51.976;9.834;2023-07-31T02:09:46;5.13;;;1.37;;
75823;SDS011;64457;51.976;9.834;2023-07-31T02:12:13;7.47;;;1.40;;
75823;SDS011;64457;51.976;9.834;2023-07-31T02:14:40;6.40;;;1.43;;
75823;SDS011;64457;51.976;9.834;2023-07-31T02:17:09;4.93;;;1.30;;
75823;SDS011;64457;51.976;9.834;2023-07-31T02:19:37;5.60;;;1.20;;
75823;SDS011;64457;51.976;9.834;2023-07-31T02:22:07;5.53;;;1.40;;
75823;SDS011;64457;51.976;9.834;2023-07-31T02:24:35;6.00;;;1.60;;
75823;SDS011;64457;51.976;9.834;2023-07-31T02:27:08;6.43;;;1.20;;
75823;SDS011;64457;51.976;9.834;2023-07-31T02:29:45;7.40;;;1.50;;
75823;SDS011;64457;51.976;9.834;2023-07-31T02:32:17;7.37;;;1.53;;
75823;SDS011;64457;51.976;9.834;2023-07-31T02:34:44;5.10;;;1.20;;
75823;SDS011;64457;51.976;9.834;2023-07-31T02:37:14;6.80;;;1.30;;
75823;SDS011;64457;51.976;9.834;2023-07-31T02:39:45;5.73;;;1.57;;
75823;SDS011;64457;51.976;9.834;2023-07-31T02:42:16;5.33;;;1.20;;
75823;SDS011;64457;51.976;9.834;2023-07-31T02:44:43;10.50;;;1.30;;
75823;SDS011;64457;51.976;9.834;2023-07-31T02:47:14;6.27;;;1.13;;
75823;SDS011;64457;51.976;9.834;2023-07-31T02:49:46;6.57;;;1.30;;
75823;SDS011;64457;51.976;9.834;2023-07-31T02:52:13;7.37;;;1.20;;
75823;SDS011;64457;51.976;9.834;2023-07-31T02:54:45;6.50;;;1.30;;
75823;SDS011;64457;51.976;9.834;2023-07-31T02:57:12;4.50;;;1.00;;
75823;SDS011;64457;51.976;9.834;2023-07-31T02:59:42;5.50;;;1.10;;
75823;SDS011;64457;51.976;9.834;2023-07-31T03:02:09;6.60;;;1.40;;
75823;SDS011;64457;51.976;9.834;2023-07-31T03:04:39;8.40;;;1.37;;
75823;SDS011;64457;51.976;9.834;2023-07-31T03:07:07;6.13;;;0.93;;
75823;SDS011;64457;51.976;9.834;2023-07-31T03:09:35;4.93;;;1.10;;
75823;SDS011;64457;51.976;9.834;2023-07-31T03:12:09;4.93;;;1.10;;
75823;SDS011;64457;51.976;9.834;2023-07-31T03:14:36;5.03;;;1.10;;
75823;SDS011;64457;51.976;9.834;2023-07-31T03:17:04;4.33;;;0.87;;
75823;SDS011;64457;51.976;9.834;2023-07-31T03:19:32;7.50;;;1.20;;
75823;SDS011;64457;51.976;9.834;2023-07-31T03:22:01;4.83;;;1.17;;
75823;SDS011;64457;51.976;9.834;2023-07-31T03:24:29;4.37;;;0.87;;
75823;SDS011;64457;51.976;9.834;2023-07-31T03:26:57;4.87;;;1.00;;
75823;SDS011;64457;51.976;9.834;2023-07-31T03:29:25;4.70;;;1.07;;
75823;SDS011;64457;51.976;9.834;2023-07-31T03:31:55;6.23;;;1.10;;
75823;SDS011;64457;51.976;9.834;2023-07-31T03:34:23;5.10;;;1.30;;
75823;SDS011;64457;51.976;9.834;2023-07-31T03:36:54;7.37;;;0.90;;
75823;SDS011;64457;51.976;9.834;2023-07-31T03:39:27;4.70;;;1.00;;
75823;SDS011;64457;51.976;9.834;2023-07-31T03:41:58;5.30;;;1.17;;
75823;SDS011;64457;51.976;9.834;2023-07-31T03:44:26;5.13;;;1.13;;
75823;SDS011;64457;51.976;9.834;2023-07-31T03:46:54;4.80;;;0.90;;
75823;SDS011;64457;51.976;9.834;2023-07-31T03:49:22;4.93;;;1.20;;
75823;SDS011;64457;51.976;9.834;2023-07-31T03:51:53;5.33;;;1.43;;
75823;SDS011;64457;51.976;9.834;2023-07-31T03:54:21;5.10;;;1.07;;
75823;SDS011;64457;51.976;9.834;2023-07-31T03:56:51;5.30;;;1.10;;
75823;SDS011;64457;51.976;9.834;2023-07-31T03:59:19;6.00;;;1.20;;
75823;SDS011;64457;51.976;9.834;2023-07-31T04:01:55;6.20;;;0.93;;
75823;SDS011;64457;51.976;9.834;2023-07-31T04:04:25;4.60;;;1.00;;
75823;SDS011;64457;51.976;9.834;2023-07-31T04:06:53;7.23;;;1.20;;
75823;SDS011;64457;51.976;9.834;2023-07-31T04:09:20;5.17;;;1.17;;
75823;SDS011;64457;51.976;9.834;2023-07-31T04:11:51;5.10;;;1.10;;
75823;SDS011;64457;51.976;9.834;2023-07-31T04:14:19;6.83;;;1.07;;
75823;SDS011;64457;51.976;9.834;2023-07-31T04:16:48;5.37;;;1.10;;
75823;SDS011;64457;51.976;9.834;2023-07-31T04:19:24;4.87;;;0.90;;
75823;SDS011;64457;51.976;9.834;2023-07-31T04:21:57;7.40;;;0.90;;
75823;SDS011;64457;51.976;9.834;2023-07-31T04:24:29;5.13;;;1.00;;
75823;SDS011;64457;51.976;9.834;2023-07-31T04:27:01;4.80;;;0.80;;
75823;SDS011;64457;51.976;9.834;2023-07-31T04:29:31;4.40;;;0.90;;
75823;SDS011;64457;51.976;9.834;2023-07-31T04:31:58;6.43;;;0.80;;
75823;SDS011;64457;51.976;9.834;2023-07-31T04:34:26;4.80;;;0.90;;
75823;SDS011;64457;51.976;9.834;2023-07-31T04:36:54;6.00;;;1.40;;
75823;SDS011;64457;51.976;9.834;2023-07-31T04:39:22;5.50;;;1.30;;
75823;SDS011;64457;51.976;9.834;2023-07-31T04:41:49;9.50;;;1.63;;
75823;SDS011;64457;51.976;9.834;2023-07-31T04:44:18;6.17;;;2.07;;
75823;SDS011;64457;51.976;9.834;2023-07-31T04:46:46;12.63;;;2.53;;
75823;SDS011;64457;51.976;9.834;2023-07-31T04:49:14;10.07;;;3.00;;
75823;SDS011;64457;51.976;9.834;2023-07-31T04:51:42;12.27;;;3.90;;
75823;SDS011;64457;51.976;9.834;2023-07-31T04:54:14;10.43;;;3.70;;
75823;SDS011;64457;51.976;9.834;2023-07-31T04:56:42;10.87;;;4.10;;
75823;SDS011;64457;51.976;9.834;2023-07-31T04:59:10;10.73;;;4.13;;
75823;SDS011;64457;51.976;9.834;2023-07-31T05:01:39;14.30;;;4.20;;
75823;SDS011;64457;51.976;9.834;2023-07-31T05:04:08;10.10;;;3.77;;
75823;SDS011;64457;51.976;9.834;2023-07-31T05:06:38;15.07;;;4.60;;
75823;SDS011;64457;51.976;9.834;2023-07-31T05:09:07;14.60;;;4.53;;
75823;SDS011;64457;51.976;9.834;2023-07-31T05:11:35;10.70;;;4.13;;
75823;SDS011;64457;51.976;9.834;2023-07-31T05:14:03;12.60;;;4.07;;
75823;SDS011;64457;51.976;9.834;2023-07-31T05:16:31;13.27;;;4.93;;
75823;SDS011;64457;51.976;9.834;2023-07-31T05:19:09;12.00;;;4.63;;
75823;SDS011;64457;51.976;9.834;2023-07-31T05:21:36;13.27;;;5.00;;
75823;SDS011;64457;51.976;9.834;2023-07-31T05:24:04;14.57;;;4.23;;
75823;SDS011;64457;51.976;9.834;2023-07-31T05:26:38;12.17;;;4.83;;
75823;SDS011;64457;51.976;9.834;2023-07-31T05:29:05;13.00;;;5.07;;
75823;SDS011;64457;51.976;9.834;2023-07-31T05:31:36;12.17;;;4.60;;
75823;SDS011;64457;51.976;9.834;2023-07-31T05:34:04;10.90;;;4.20;;
75823;SDS011;64457;51.976;9.834;2023-07-31T05:36:33;14.63;;;4.40;;
75823;SDS011;64457;51.976;9.834;2023-07-31T05:39:01;12.30;;;4.20;;
75823;SDS011;64457;51.976;9.834;2023-07-31T05:41:32;13.83;;;3.97;;
75823;SDS011;64457;51.976;9.834;2023-07-31T05:44:00;12.73;;;4.53;;
75823;SDS011;64457;51.976;9.834;2023-07-31T05:46:27;10.87;;;3.80;;
75823;SDS011;64457;51.976;9.834;2023-07-31T05:48:56;10.23;;;3.90;;
75823;SDS011;64457;51.976;9.834;2023-07-31T05:51:26;14.13;;;4.30;;
75823;SDS011;64457;51.976;9.834;2023-07-31T05:53:55;16.20;;;4.90;;
75823;SDS011;64457;51.976;9.834;2023-07-31T05:56:23;12.73;;;4.10;;
75823;SDS011;64457;51.976;9.834;2023-07-31T05:58:52;13.77;;;4.47;;
75823;SDS011;64457;51.976;9.834;2023-07-31T06:01:20;11.77;;;3.77;;
75823;SDS011;64457;51.976;9.834;2023-07-31T06:03:47;10.10;;;3.87;;
75823;SDS011;64457;51.976;9.834;2023-07-31T06:06:15;10.60;;;4.00;;
75823;SDS011;64457;51.976;9.834;2023-07-31T06:08:43;11.97;;;4.37;;
75823;SDS011;64457;51.976;9.834;2023-07-31T06:11:12;11.93;;;4.23;;
75823;SDS011;64457;51.976;9.834;2023-07-31T06:13:40;14.87;;;4.90;;
75823;SDS011;64457;51.976;9.834;2023-07-31T06:16:10;16.30;;;5.30;;
75823;SDS011;64457;51.976;9.834;2023-07-31T06:18:40;15.97;;;5.40;;
75823;SDS011;64457;51.976;9.834;2023-07-31T06:21:09;14.17;;;5.20;;
75823;SDS011;64457;51.976;9.834;2023-07-31T06:23:37;16.83;;;5.77;;
75823;SDS011;64457;51.976;9.834;2023-07-31T06:26:04;21.50;;;5.50;;
75823;SDS011;64457;51.976;9.834;2023-07-31T06:28:41;18.20;;;5.43;;
75823;SDS011;64457;51.976;9.834;2023-07-31T06:31:09;14.43;;;5.47;;
75823;SDS011;64457;51.976;9.834;2023-07-31T06:33:39;14.43;;;5.23;;
75823;SDS011;64457;51.976;9.834;2023-07-31T06:36:07;13.87;;;5.00;;
75823;SDS011;64457;51.976;9.834;2023-07-31T06:38:35;14.00;;;4.70;;
75823;SDS011;64457;51.976;9.834;2023-07-31T06:41:25;16.83;;;5.10;;
75823;SDS011;64457;51.976;9.834;2023-07-31T06:44:11;15.93;;;5.20;;
75823;SDS011;64457;51.976;9.834;2023-07-31T06:46:49;15.60;;;5.07;;
75823;SDS011;64457;51.976;9.834;2023-07-31T06:49:44;13.23;;;4.80;;
75823;SDS011;64457;51.976;9.834;2023-07-31T06:52:15;11.23;;;5.30;;
75823;SDS011;64457;51.976;9.834;2023-07-31T06:54:59;13.20;;;5.03;;
75823;SDS011;64457;51.976;9.834;2023-07-31T06:57:29;21.40;;;4.90;;
75823;SDS011;64457;51.976;9.834;2023-07-31T07:00:01;17.03;;;5.10;;
75823;SDS011;64457;51.976;9.834;2023-07-31T07:02:48;15.53;;;4.90;;
75823;SDS011;64457;51.976;9.834;2023-07-31T07:05:20;13.30;;;4.60;;
75823;SDS011;64457;51.976;9.834;2023-07-31T07:07:54;12.97;;;4.40;;
75823;SDS011;64457;51.976;9.834;2023-07-31T07:10:22;15.73;;;5.13;;
75823;SDS011;64457;51.976;9.834;2023-07-31T07:12:50;11.20;;;4.20;;
75823;SDS011;64457;51.976;9.834;2023-07-31T07:15:18;13.77;;;4.87;;
75823;SDS011;64457;51.976;9.834;2023-07-31T07:17:49;14.40;;;5.07;;
75823;SDS011;64457;51.976;9.834;2023-07-31T07:20:16;18.60;;;4.37;;
75823;SDS011;64457;51.976;9.834;2023-07-31T07:22:45;13.20;;;4.27;;
75823;SDS011;64457;51.976;9.834;2023-07-31T07:25:14;14.70;;;5.03;;
75823;SDS011;64457;51.976;9.834;2023-07-31T07:27:42;16.27;;;4.47;;
75823;SDS011;64457;51.976;9.834;2023-07-31T07:30:10;10.83;;;4.30;;
75823;SDS011;64457;51.976;9.834;2023-07-31T07:32:40;14.03;;;4.00;;
75823;SDS011;64457;51.976;9.834;2023-07-31T07:35:08;14.90;;;4.80;;
75823;SDS011;64457;51.976;9.834;2023-07-31T07:37:36;12.90;;;4.77;;
75823;SDS011;64457;51.976;9.834;2023-07-31T07:40:04;12.77;;;4.60;;
75823;SDS011;64457;51.976;9.834;2023-07-31T07:42:35;10.97;;;4.60;;
75823;SDS011;64457;51.976;9.834;2023-07-31T07:45:06;13.37;;;5.00;;
75823;SDS011;64457;51.976;9.834;2023-07-31T07:47:35;11.90;;;4.70;;
75823;SDS011;64457;51.976;9.834;2023-07-31T07:50:07;16.50;;;5.10;;
75823;SDS011;64457;51.976;9.834;2023-07-31T07:52:35;12.40;;;4.40;;
75823;SDS011;64457;51.976;9.834;2023-07-31T07:55:03;17.70;;;4.60;;
75823;SDS011;64457;51.976;9.834;2023-07-31T07:57:31;11.10;;;4.30;;
75823;SDS011;64457;51.976;9.834;2023-07-31T07:59:58;13.87;;;4.30;;
75823;SDS011;64457;51.976;9.834;2023-07-31T08:02:26;12.20;;;4.50;;
75823;SDS011;64457;51.976;9.834;2023-07-31T08:04:53;22.67;;;5.40;;
75823;SDS011;64457;51.976;9.834;2023-07-31T08:07:23;10.40;;;3.70;;
75823;SDS011;64457;51.976;9.834;2023-07-31T08:09:50;10.97;;;4.07;;
75823;SDS011;64457;51.976;9.834;2023-07-31T08:12:19;11.80;;;4.00;;
75823;SDS011;64457;51.976;9.834;2023-07-31T08:14:47;10.53;;;4.10;;
75823;SDS011;64457;51.976;9.834;2023-07-31T08:17:14;14.83;;;4.57;;
75823;SDS011;64457;51.976;9.834;2023-07-31T08:19:42;9.87;;;3.50;;
75823;SDS011;64457;51.976;9.834;2023-07-31T08:22:10;10.17;;;4.13;;
75823;SDS011;64457;51.976;9.834;2023-07-31T08:24:39;11.27;;;3.83;;
75823;SDS011;64457;51.976;9.834;2023-07-31T08:27:08;13.90;;;3.60;;
75823;SDS011;64457;51.976;9.834;2023-07-31T08:29:35;9.53;;;3.30;;
75823;SDS011;64457;51.976;9.834;2023-07-31T08:32:03;9.00;;;3.60;;
75823;SDS011;64457;51.976;9.834;2023-07-31T08:34:32;10.10;;;3.67;;
75823;SDS011;64457;51.976;9.834;2023-07-31T08:36:59;10.47;;;4.00;;
75823;SDS011;64457;51.976;9.834;2023-07-31T08:39:28;11.87;;;3.93;;
75823;SDS011;64457;51.976;9.834;2023-07-31T08:41:59;14.80;;;3.70;;
75823;SDS011;64457;51.976;9.834;2023-07-31T08:49:50;13.60;;;3.70;;
75823;SDS011;64457;51.976;9.834;2023-07-31T08:52:19;13.47;;;3.80;;
75823;SDS011;64457;51.976;9.834;2023-07-31T08:54:47;8.80;;;3.50;;
75823;SDS011;64457;51.976;9.834;2023-07-31T08:57:16;11.90;;;4.00;;
75823;SDS011;64457;51.976;9.834;2023-07-31T08:59:44;10.00;;;3.80;;
75823;SDS011;64457;51.976;9.834;2023-07-31T09:02:16;10.13;;;3.60;;
75823;SDS011;64457;51.976;9.834;2023-07-31T09:04:53;13.87;;;3.57;;
75823;SDS011;64457;51.976;9.834;2023-07-31T09:07:21;13.03;;;3.87;;
75823;SDS011;64457;51.976;9.834;2023-07-31T09:09:49;12.60;;;3.60;;
75823;SDS011;64457;51.976;9.834;2023-07-31T09:12:21;9.43;;;3.60;;
75823;SDS011;64457;51.976;9.834;2023-07-31T09:14:49;10.37;;;3.80;;
75823;SDS011;64457;51.976;9.834;2023-07-31T09:17:27;11.00;;;3.40;;
75823;SDS011;64457;51.976;9.834;2023-07-31T09:19:56;8.43;;;3.10;;
75823;SDS011;64457;51.976;9.834;2023-07-31T09:22:34;9.33;;;3.70;;
75823;SDS011;64457;51.976;9.834;2023-07-31T09:25:13;9.10;;;3.30;;
75823;SDS011;64457;51.976;9.834;2023-07-31T09:27:47;10.90;;;3.00;;
75823;SDS011;64457;51.976;9.834;2023-07-31T09:30:16;7.87;;;3.10;;
75823;SDS011;64457;51.976;9.834;2023-07-31T09:32:45;9.00;;;2.77;;
75823;SDS011;64457;51.976;9.834;2023-07-31T09:35:18;6.97;;;2.57;;
75823;SDS011;64457;51.976;9.834;2023-07-31T09:37:50;7.77;;;2.83;;
75823;SDS011;64457;51.976;9.834;2023-07-31T09:40:26;7.30;;;2.50;;
75823;SDS011;64457;51.976;9.834;2023-07-31T09:42:58;6.73;;;2.37;;
75823;SDS011;64457;51.976;9.834;2023-07-31T09:45:30;8.50;;;2.80;;
75823;SDS011;64457;51.976;9.834;2023-07-31T09:48:01;7.10;;;2.50;;
75823;SDS011;64457;51.976;9.834;2023-07-31T09:50:29;6.90;;;2.70;;
75823;SDS011;64457;51.976;9.834;2023-07-31T09:52:57;6.30;;;2.40;;
75823;SDS011;64457;51.976;9.834;2023-07-31T09:55:24;6.80;;;2.33;;
75823;SDS011;64457;51.976;9.834;2023-07-31T09:57:55;7.73;;;2.60;;
75823;SDS011;64457;51.976;9.834;2023-07-31T10:00:26;7.33;;;2.40;;
75823;SDS011;64457;51.976;9.834;2023-07-31T10:02:58;6.47;;;2.20;;
75823;SDS011;64457;51.976;9.834;2023-07-31T10:05:29;9.70;;;2.13;;
75823;SDS011;64457;51.976;9.834;2023-07-31T10:08:09;8.13;;;2.47;;
75823;SDS011;64457;51.976;9.834;2023-07-31T10:10:47;7.03;;;2.07;;
75823;SDS011;64457;51.976;9.834;2023-07-31T10:13:16;10.03;;;2.60;;
75823;SDS011;64457;51.976;9.834;2023-07-31T10:15:50;7.70;;;2.60;;
75823;SDS011;64457;51.976;9.834;2023-07-31T10:18:18;11.40;;;2.90;;
75823;SDS011;64457;51.976;9.834;2023-07-31T10:20:57;6.70;;;2.37;;
75823;SDS011;64457;51.976;9.834;2023-07-31T10:23:25;7.93;;;2.70;;
75823;SDS011;64457;51.976;9.834;2023-07-31T10:25:57;7.13;;;2.40;;
75823;SDS011;64457;51.976;9.834;2023-07-31T10:28:29;8.20;;;2.40;;
75823;SDS011;64457;51.976;9.834;2023-07-31T10:30:58;7.23;;;2.30;;
75823;SDS011;64457;51.976;9.834;2023-07-31T10:33:28;6.67;;;2.53;;
75823;SDS011;64457;51.976;9.834;2023-07-31T10:36:12;7.67;;;2.67;;
75823;SDS011;64457;51.976;9.834;2023-07-31T10:38:42;6.70;;;2.20;;
75823;SDS011;64457;51.976;9.834;2023-07-31T10:41:12;8.10;;;3.07;;
75823;SDS011;64457;51.976;9.834;2023-07-31T10:43:41;6.60;;;2.20;;
75823;SDS011;64457;51.976;9.834;2023-07-31T10:46:14;7.83;;;2.40;;
75823;SDS011;64457;51.976;9.834;2023-07-31T10:48:41;7.60;;;2.47;;
75823;SDS011;64457;51.976;9.834;2023-07-31T10:51:11;7.53;;;2.47;;
75823;SDS011;64457;51.976;9.834;2023-07-31T10:53:43;5.90;;;1.90;;
75823;SDS011;64457;51.976;9.834;2023-07-31T10:56:11;7.10;;;2.20;;
75823;SDS011;64457;51.976;9.834;2023-07-31T10:58:50;10.13;;;2.47;;
75823;SDS011;64457;51.976;9.834;2023-07-31T11:01:49;6.60;;;2.20;;
75823;SDS011;64457;51.976;9.834;2023-07-31T11:04:25;7.73;;;2.37;;
75823;SDS011;64457;51.976;9.834;2023-07-31T11:07:00;7.00;;;1.90;;
75823;SDS011;64457;51.976;9.834;2023-07-31T11:09:37;6.77;;;2.83;;
75823;SDS011;64457;51.976;9.834;2023-07-31T11:12:09;7.73;;;2.50;;
75823;SDS011;64457;51.976;9.834;2023-07-31T11:14:38;7.37;;;2.30;;
75823;SDS011;64457;51.976;9.834;2023-07-31T11:17:11;8.10;;;2.50;;
75823;SDS011;64457;51.976;9.834;2023-07-31T11:19:39;7.27;;;1.97;;
75823;SDS011;64457;51.976;9.834;2023-07-31T11:22:06;10.70;;;2.20;;
75823;SDS011;64457;51.976;9.834;2023-07-31T11:24:44;5.60;;;2.00;;
75823;SDS011;64457;51.976;9.834;2023-07-31T11:27:12;6.20;;;2.10;;
75823;SDS011;64457;51.976;9.834;2023-07-31T11:29:44;6.30;;;2.40;;
75823;SDS011;64457;51.976;9.834;2023-07-31T11:32:17;6.80;;;1.93;;
75823;SDS011;64457;51.976;9.834;2023-07-31T11:34:54;7.10;;;2.10;;
75823;SDS011;64457;51.976;9.834;2023-07-31T11:37:22;7.60;;;1.87;;
75823;SDS011;64457;51.976;9.834;2023-07-31T11:39:59;11.50;;;2.27;;
75823;SDS011;64457;51.976;9.834;2023-07-31T11:42:39;6.47;;;1.93;;
75823;SDS011;64457;51.976;9.834;2023-07-31T11:45:09;6.30;;;2.00;;
75823;SDS011;64457;51.976;9.834;2023-07-31T11:47:39;9.77;;;2.23;;
75823;SDS011;64457;51.976;9.834;2023-07-31T11:50:10;11.30;;;2.03;;
75823;SDS011;64457;51.976;9.834;2023-07-31T11:52:43;7.93;;;2.30;;
75823;SDS011;64457;51.976;9.834;2023-07-31T11:55:21;6.13;;;2.03;;
75823;SDS011;64457;51.976;9.834;2023-07-31T11:57:50;6.00;;;2.07;;
75823;SDS011;64457;51.976;9.834;2023-07-31T12:03:10;6.77;;;2.10;;
75823;SDS011;64457;51.976;9.834;2023-07-31T12:05:56;6.87;;;2.13;;
75823;SDS011;64457;51.976;9.834;2023-07-31T12:08:25;7.67;;;2.10;;
75823;SDS011;64457;51.976;9.834;2023-07-31T12:10:53;6.70;;;1.93;;
75823;SDS011;64457;51.976;9.834;2023-07-31T12:13:35;6.13;;;1.73;;
75823;SDS011;64457;51.976;9.834;2023-07-31T12:16:07;6.13;;;2.00;;
75823;SDS011;64457;51.976;9.834;2023-07-31T12:18:37;6.63;;;2.20;;
75823;SDS011;64457;51.976;9.834;2023-07-31T12:21:09;6.80;;;2.20;;
75823;SDS011;64457;51.976;9.834;2023-07-31T12:23:51;14.03;;;2.40;;
75823;SDS011;64457;51.976;9.834;2023-07-31T12:26:20;6.53;;;2.23;;
75823;SDS011;64457;51.976;9.834;2023-07-31T12:28:49;5.33;;;1.73;;
75823;SDS011;64457;51.976;9.834;2023-07-31T12:34:02;5.50;;;1.70;;
75823;SDS011;64457;51.976;9.834;2023-07-31T12:36:41;5.40;;;1.40;;
75823;SDS011;64457;51.976;9.834;2023-07-31T12:39:10;5.37;;;1.67;;
75823;SDS011;64457;51.976;9.834;2023-07-31T12:41:46;6.27;;;1.70;;
75823;SDS011;64457;51.976;9.834;2023-07-31T12:44:28;6.30;;;1.30;;
75823;SDS011;64457;51.976;9.834;2023-07-31T12:46:57;5.13;;;1.37;;
75823;SDS011;64457;51.976;9.834;2023-07-31T12:49:29;5.10;;;1.30;;
75823;SDS011;64457;51.976;9.834;2023-07-31T12:51:59;4.47;;;0.90;;
75823;SDS011;64457;51.976;9.834;2023-07-31T12:54:33;5.17;;;1.07;;
75823;SDS011;64457;51.976;9.834;2023-07-31T12:57:01;4.70;;;1.10;;
75823;SDS011;64457;51.976;9.834;2023-07-31T12:59:29;6.40;;;1.20;;
75823;SDS011;64457;51.976;9.834;2023-07-31T13:02:04;4.67;;;1.10;;
75823;SDS011;64457;51.976;9.834;2023-07-31T13:04:36;5.73;;;1.27;;
75823;SDS011;64457;51.976;9.834;2023-07-31T13:07:04;4.60;;;0.90;;
75823;SDS011;64457;51.976;9.834;2023-07-31T13:09:36;5.17;;;1.00;;
75823;SDS011;64457;51.976;9.834;2023-07-31T13:12:06;4.93;;;1.10;;
75823;SDS011;64457;51.976;9.834;2023-07-31T13:14:35;4.30;;;0.90;;
75823;SDS011;64457;51.976;9.834;2023-07-31T13:17:05;4.37;;;0.90;;
75823;SDS011;64457;51.976;9.834;2023-07-31T13:19:36;5.10;;;0.93;;
75823;SDS011;64457;51.976;9.834;2023-07-31T13:22:03;4.67;;;0.73;;
75823;SDS011;64457;51.976;9.834;2023-07-31T13:24:31;5.77;;;1.40;;
75823;SDS011;64457;51.976;9.834;2023-07-31T13:26:59;4.53;;;0.90;;
75823;SDS011;64457;51.976;9.834;2023-07-31T13:29:26;4.20;;;0.70;;
75823;SDS011;64457;51.976;9.834;2023-07-31T13:31:57;4.97;;;0.90;;
75823;SDS011;64457;51.976;9.834;2023-07-31T13:34:28;4.70;;;0.80;;
75823;SDS011;64457;51.976;9.834;2023-07-31T13:36:56;4.20;;;0.87;;
75823;SDS011;64457;51.976;9.834;2023-07-31T13:39:24;4.37;;;0.90;;
75823;SDS011;64457;51.976;9.834;2023-07-31T13:41:51;5.47;;;0.90;;
75823;SDS011;64457;51.976;9.834;2023-07-31T13:44:19;4.30;;;0.80;;
75823;SDS011;64457;51.976;9.834;2023-07-31T13:46:48;4.30;;;0.83;;
75823;SDS011;64457;51.976;9.834;2023-07-31T13:49:18;4.40;;;0.80;;
75823;SDS011;64457;51.976;9.834;2023-07-31T13:51:52;5.53;;;0.90;;
75823;SDS011;64457;51.976;9.834;2023-07-31T13:54:23;4.40;;;0.70;;
75823;SDS011;64457;51.976;9.834;2023-07-31T13:56:56;4.93;;;1.00;;
75823;SDS011;64457;51.976;9.834;2023-07-31T13:59:24;4.53;;;0.77;;
75823;SDS011;64457;51.976;9.834;2023-07-31T14:01:55;4.50;;;1.00;;
75823;SDS011;64457;51.976;9.834;2023-07-31T14:04:24;4.23;;;0.80;;
75823;SDS011;64457;51.976;9.834;2023-07-31T14:06:53;4.33;;;0.80;;
75823;SDS011;64457;51.976;9.834;2023-07-31T14:09:28;4.43;;;1.10;;
75823;SDS011;64457;51.976;9.834;2023-07-31T14:12:00;4.40;;;1.00;;
75823;SDS011;64457;51.976;9.834;2023-07-31T14:14:35;4.23;;;0.90;;
75823;SDS011;64457;51.976;9.834;2023-07-31T14:17:08;4.70;;;1.00;;
75823;SDS011;64457;51.976;9.834;2023-07-31T14:19:47;6.17;;;1.10;;
75823;SDS011;64457;51.976;9.834;2023-07-31T14:22:31;4.37;;;0.83;;
75823;SDS011;64457;51.976;9.834;2023-07-31T14:25:01;4.70;;;1.00;;
75823;SDS011;64457;51.976;9.834;2023-07-31T14:27:35;4.60;;;1.03;;
75823;SDS011;64457;51.976;9.834;2023-07-31T14:30:06;4.40;;;0.90;;
75823;SDS011;64457;51.976;9.834;2023-07-31T14:32:41;5.43;;;1.10;;
75823;SDS011;64457;51.976;9.834;2023-07-31T14:35:09;5.70;;;1.20;;
75823;SDS011;64457;51.976;9.834;2023-07-31T14:37:41;4.60;;;1.10;;
75823;SDS011;64457;51.976;9.834;2023-07-31T14:40:12;6.30;;;1.27;;
75823;SDS011;64457;51.976;9.834;2023-07-31T14:42:43;6.43;;;1.20;;
75823;SDS011;64457;51.976;9.834;2023-07-31T14:45:13;5.10;;;1.47;;
75823;SDS011;64457;51.976;9.834;2023-07-31T14:47:43;4.80;;;1.03;;
75823;SDS011;64457;51.976;9.834;2023-07-31T14:50:17;5.43;;;1.40;;
75823;SDS011;64457;51.976;9.834;2023-07-31T14:52:52;6.67;;;1.30;;
75823;SDS011;64457;51.976;9.834;2023-07-31T14:55:25;4.87;;;1.07;;
75823;SDS011;64457;51.976;9.834;2023-07-31T14:57:56;6.87;;;1.20;;
75823;SDS011;64457;51.976;9.834;2023-07-31T15:00:35;4.30;;;1.03;;
75823;SDS011;64457;51.976;9.834;2023-07-31T15:03:03;5.20;;;1.20;;
75823;SDS011;64457;51.976;9.834;2023-07-31T15:05:30;5.03;;;1.23;;
75823;SDS011;64457;51.976;9.834;2023-07-31T15:07:59;5.23;;;1.50;;
75823;SDS011;64457;51.976;9.834;2023-07-31T15:10:29;5.67;;;1.20;;
75823;SDS011;64457;51.976;9.834;2023-07-31T15:12:59;4.60;;;1.10;;
75823;SDS011;64457;51.976;9.834;2023-07-31T15:15:27;4.70;;;1.07;;